Time;durP1;ratioP1;P1;durP2;ratioP2;P2;SDS_P1;SDS_P2;PMS_P1;PMS_P2;Temp;Humidity;BMP_temperature;BMP_pressure;BME280_temperature;BME280_humidity;BME280_pressure;Samples;Min_cycle;Max_cycle;Signal;HPM_P1;HPM_P2
2023/04/12 00:00:26;;;;;;;4.72;2.40;;;15.80;67.60;;;;;;10269656;28;20425;-57
2023/04/12 00:05:30;;;;;;;4.93;2.75;;;15.80;67.50;;;;;;10286729;28;20023;-57
2023/04/12 00:10:31;;;;;;;5.05;2.50;;;15.80;67.50;;;;;;10287159;28;20042;-57
2023/04/12 00:15:32;;;;;;;4.50;2.38;;;15.80;67.50;;;;;;10286297;28;20041;-57
2023/04/12 00:20:32;;;;;;;5.15;1.95;;;15.80;67.60;;;;;;10287582;28;20035;-57
2023/04/12 00:25:33;;;;;;;5.32;2.58;;;15.80;67.60;;;;;;10284987;28;20065;-57
2023/04/12 00:30:34;;;;;;;4.32;2.08;;;15.80;67.60;;;;;;10285967;28;20106;-57
2023/04/12 00:35:34;;;;;;;3.70;1.90;;;15.80;67.60;;;;;;10268283;28;20537;-57
2023/04/12 00:40:40;;;;;;;4.43;2.00;;;15.80;67.70;;;;;;10285285;28;20039;-57
2023/04/12 00:45:41;;;;;;;4.32;1.90;;;15.70;67.60;;;;;;10285361;28;20045;-56
2023/04/12 00:50:43;;;;;;;4.22;2.60;;;15.80;67.60;;;;;;10267964;28;20440;-57
2023/04/12 00:55:45;;;;;;;5.72;2.70;;;15.70;67.60;;;;;;10267760;28;20046;-57
2023/04/12 01:00:49;;;;;;;3.70;2.08;;;15.70;67.50;;;;;;10285008;28;20039;-57
2023/04/12 01:06:03;;;;;;;4.97;2.13;;;15.70;68.20;;;;;;10284920;28;20038;-57
2023/04/12 01:11:25;;;;;;;4.25;2.05;;;15.70;67.60;;;;;;10267808;28;20028;-58
2023/04/12 01:16:49;;;;;;;2.72;1.58;;;15.70;67.60;;;;;;10284446;28;20058;-57
2023/04/12 01:22:29;;;;;;;4.35;2.10;;;15.70;67.60;;;;;;10266969;28;20419;-57
2023/04/12 01:27:48;;;;;;;3.10;1.55;;;15.70;67.60;;;;;;10266561;28;20406;-56
2023/04/12 01:32:52;;;;;;;4.77;1.97;;;15.70;67.60;;;;;;10282511;28;20031;-58
2023/04/12 01:37:53;;;;;;;4.43;1.98;;;15.70;67.60;;;;;;10283350;28;20030;-59
2023/04/12 01:43:07;;;;;;;5.45;2.50;;;15.70;67.60;;;;;;10266386;28;20026;-57
2023/04/12 01:48:10;;;;;;;2.75;1.33;;;15.70;67.60;;;;;;10283322;28;20045;-57
2023/04/12 01:53:19;;;;;;;4.20;1.70;;;15.60;67.60;;;;;;10266528;28;20053;-57
2023/04/12 01:58:21;;;;;;;4.22;1.45;;;15.60;67.70;;;;;;10282614;28;20474;-57
2023/04/12 02:03:23;;;;;;;3.88;1.75;;;15.70;67.70;;;;;;10272777;28;20054;-57
2023/04/12 02:08:25;;;;;;;2.88;1.60;;;15.60;67.70;;;;;;10283132;28;20542;-57
2023/04/12 02:13:25;;;;;;;2.72;1.38;;;15.60;67.70;;;;;;10282866;28;20073;-56
2023/04/12 02:18:26;;;;;;;4.78;2.20;;;15.60;67.60;;;;;;10282784;28;20198;-57
2023/04/12 02:23:27;;;;;;;3.55;1.30;;;15.60;67.70;;;;;;10282705;28;20073;-57
2023/04/12 02:28:28;;;;;;;3.38;1.58;;;15.60;67.70;;;;;;10282359;28;20031;-57
2023/04/12 02:33:29;;;;;;;3.40;1.35;;;15.60;67.70;;;;;;10265288;28;20030;-57
2023/04/12 02:38:30;;;;;;;3.15;1.35;;;15.60;67.70;;;;;;10282304;28;20038;-57
2023/04/12 02:43:32;;;;;;;2.03;1.13;;;15.60;67.70;;;;;;10282696;28;20043;-56
2023/04/12 02:48:32;;;;;;;3.95;1.58;;;15.60;67.70;;;;;;10271429;28;20027;-57
2023/04/12 02:53:33;;;;;;;2.03;1.00;;;15.60;67.70;;;;;;10289706;28;20489;-58
2023/04/12 02:58:35;;;;;;;2.92;1.48;;;15.50;67.60;;;;;;10289316;28;20074;-57
2023/04/12 03:03:36;;;;;;;3.50;1.23;;;15.60;67.80;;;;;;10272451;28;20423;-57
2023/04/12 03:08:37;;;;;;;3.42;1.60;;;15.60;67.80;;;;;;10271964;28;20027;-57
2023/04/12 03:13:38;;;;;;;3.67;1.23;;;15.50;67.70;;;;;;10289138;28;20553;-57
2023/04/12 03:18:39;;;;;;;2.72;1.10;;;15.50;67.70;;;;;;10288352;28;20077;-57
2023/04/12 03:23:40;;;;;;;2.63;1.27;;;15.50;67.70;;;;;;10288794;28;20521;-57
2023/04/12 03:28:41;;;;;;;3.90;1.10;;;15.50;67.70;;;;;;10287973;28;20138;-57
2023/04/12 03:33:42;;;;;;;2.30;1.17;;;15.50;67.70;;;;;;10287987;28;20074;-57
2023/04/12 03:38:43;;;;;;;2.22;1.15;;;15.50;67.80;;;;;;10287752;28;20126;-57
2023/04/12 03:43:43;;;;;;;2.28;0.93;;;15.50;67.80;;;;;;10286170;28;20078;-58
2023/04/12 03:48:44;;;;;;;2.40;1.25;;;15.50;67.60;;;;;;10287706;28;20074;-57
2023/04/12 03:53:45;;;;;;;3.00;1.08;;;15.50;67.70;;;;;;10270369;28;20600;-57
2023/04/12 03:58:46;;;;;;;2.53;0.93;;;15.50;67.70;;;;;;10286742;28;20050;-56
2023/04/12 04:03:47;;;;;;;2.25;1.00;;;15.50;67.80;;;;;;10274115;28;20041;-56
2023/04/12 04:08:48;;;;;;;1.98;1.30;;;15.50;67.80;;;;;;10268871;28;20365;-57
2023/04/12 04:13:48;;;;;;;2.97;1.17;;;15.50;67.70;;;;;;10285223;28;20478;-57
2023/04/12 04:18:49;;;;;;;2.72;1.00;;;15.50;67.80;;;;;;10268257;28;20121;-57
2023/04/12 04:23:50;;;;;;;1.55;0.63;;;15.60;67.70;;;;;;10284970;28;20088;-57
2023/04/12 04:28:52;;;;;;;2.08;0.85;;;15.70;67.20;;;;;;10267129;28;20025;-56
2023/04/12 04:33:53;;;;;;;2.92;0.90;;;15.80;66.70;;;;;;10267930;28;20466;-57
2023/04/12 04:38:56;;;;;;;2.92;1.17;;;16.00;66.30;;;;;;10284508;28;20086;-57
2023/04/12 04:43:56;;;;;;;3.28;0.82;;;16.00;66.20;;;;;;10283231;28;20085;-57
2023/04/12 04:48:57;;;;;;;2.90;0.80;;;16.10;66.50;;;;;;10284374;28;20493;-57
2023/04/12 04:53:59;;;;;;;2.22;1.10;;;16.30;66.60;;;;;;10266747;28;20073;-57
2023/04/12 04:59:01;;;;;;;12.50;1.67;;;16.30;67.30;;;;;;10283792;28;20123;-57
2023/04/12 05:04:02;;;;;;;8.77;1.80;;;16.30;67.50;;;;;;10284044;28;20054;-58
2023/04/12 05:09:04;;;;;;;5.13;1.50;;;16.40;67.60;;;;;;10283695;28;20050;-58
2023/04/12 05:14:04;;;;;;;8.52;1.95;;;16.50;68.60;;;;;;10282821;28;20027;-60
2023/04/12 05:19:05;;;;;;;10.65;1.50;;;16.50;68.70;;;;;;10263914;28;20082;-57
2023/04/12 05:24:07;;;;;;;8.07;2.05;;;16.50;68.60;;;;;;10283113;28;20470;-58
2023/04/12 05:29:07;;;;;;;8.73;1.13;;;16.50;69.50;;;;;;10281726;28;20023;-58
2023/04/12 05:34:08;;;;;;;16.45;1.92;;;16.40;68.30;;;;;;10282497;28;20031;-57
2023/04/12 05:39:08;;;;;;;7.25;1.42;;;16.30;68.80;;;;;;10282079;28;20078;-58
2023/04/12 05:44:09;;;;;;;7.15;1.85;;;16.20;68.80;;;;;;10283187;28;20524;-58
2023/04/12 05:49:11;;;;;;;16.27;2.60;;;16.10;69.20;;;;;;10265426;28;21939;-58
2023/04/12 05:54:11;;;;;;;16.75;2.05;;;16.10;69.60;;;;;;10276927;28;20045;-59
2023/04/12 05:59:12;;;;;;;15.85;2.60;;;16.00;69.40;;;;;;10276942;28;20034;-59
2023/04/12 06:04:13;;;;;;;18.05;2.22;;;16.00;69.60;;;;;;10282971;28;20113;-59
2023/04/12 06:09:14;;;;;;;11.32;2.40;;;16.00;69.40;;;;;;10262548;28;20615;-59
2023/04/12 06:14:15;;;;;;;22.60;3.13;;;15.90;69.50;;;;;;10283123;28;20070;-59
2023/04/12 06:19:15;;;;;;;9.93;2.47;;;15.90;69.40;;;;;;10263736;28;20123;-60
2023/04/12 06:24:16;;;;;;;10.50;2.30;;;15.90;69.40;;;;;;10283297;28;20377;-60
2023/04/12 06:29:17;;;;;;;6.70;1.73;;;15.90;69.40;;;;;;10273052;28;20110;-60
2023/04/12 06:34:18;;;;;;;7.60;1.63;;;15.80;69.30;;;;;;10273703;28;20169;-60
2023/04/12 06:39:18;;;;;;;8.63;1.67;;;15.80;69.90;;;;;;10256674;28;20121;-60
2023/04/12 06:44:19;;;;;;;11.65;2.35;;;15.80;69.60;;;;;;10274039;28;20078;-58
2023/04/12 06:49:20;;;;;;;17.48;2.83;;;15.90;69.50;;;;;;10286124;28;20121;-58
2023/04/12 06:54:20;;;;;;;19.08;2.40;;;15.90;69.30;;;;;;10267631;28;20027;-60
2023/04/12 06:59:21;;;;;;;15.70;4.40;;;15.80;69.50;;;;;;10275435;28;20128;-59
2023/04/12 07:04:22;;;;;;;21.20;5.53;;;15.80;69.60;;;;;;10289107;28;20070;-59
2023/04/12 07:09:22;;;;;;;19.13;4.47;;;15.80;69.70;;;;;;10289275;28;20074;-59
2023/04/12 07:14:23;;;;;;;16.00;3.50;;;15.80;69.70;;;;;;10286588;28;20050;-59
2023/04/12 07:19:24;;;;;;;16.45;3.10;;;15.70;69.60;;;;;;10287767;28;20030;-57
2023/04/12 07:24:25;;;;;;;22.45;4.35;;;15.70;69.60;;;;;;10288243;28;20174;-58
2023/04/12 07:29:25;;;;;;;16.15;2.63;;;15.70;69.70;;;;;;10286507;28;20154;-59
2023/04/12 07:34:26;;;;;;;10.43;2.60;;;15.70;69.60;;;;;;10285316;28;20031;-58
2023/04/12 07:39:28;;;;;;;12.63;2.92;;;15.70;69.50;;;;;;10283464;28;20031;-58
2023/04/12 07:44:30;;;;;;;20.08;4.78;;;15.70;69.60;;;;;;10284128;28;20050;-58
2023/04/12 07:49:30;;;;;;;8.75;3.53;;;15.70;69.40;;;;;;10265321;28;20110;-58
2023/04/12 07:54:31;;;;;;;6.72;2.50;;;15.70;69.30;;;;;;10281529;28;20088;-59
2023/04/12 07:59:32;;;;;;;8.40;2.67;;;15.70;69.30;;;;;;10280770;28;20074;-58
2023/04/12 08:04:33;;;;;;;11.73;2.28;;;15.70;69.30;;;;;;10282036;28;20027;-58
2023/04/12 08:09:34;;;;;;;10.13;2.25;;;15.70;69.30;;;;;;10267460;28;20022;-58
2023/04/12 08:14:34;;;;;;;10.20;2.40;;;15.70;69.30;;;;;;10262848;28;20034;-58
2023/04/12 08:19:35;;;;;;;10.88;2.38;;;15.70;69.30;;;;;;10255033;28;20026;-58
2023/04/12 08:24:36;;;;;;;7.82;2.22;;;15.80;69.10;;;;;;10283493;28;21633;-58
2023/04/12 08:29:37;;;;;;;11.38;2.08;;;15.80;69.10;;;;;;10285275;28;20434;-58
2023/04/12 08:34:38;;;;;;;5.70;1.92;;;15.80;69.10;;;;;;10266888;28;20022;-58
2023/04/12 08:39:38;;;;;;;10.02;2.55;;;15.80;69.00;;;;;;10285251;28;20067;-57
2023/04/12 08:44:39;;;;;;;5.80;1.92;;;15.80;69.10;;;;;;10266967;28;20046;-59
2023/04/12 08:49:40;;;;;;;6.47;1.38;;;15.70;69.00;;;;;;10267764;28;20011;-58
2023/04/12 08:54:40;;;;;;;6.40;1.90;;;15.80;69.00;;;;;;10283782;28;20679;-59
2023/04/12 08:59:46;;;;;;;4.32;1.73;;;15.80;68.90;;;;;;10248327;28;20146;-58
2023/04/12 09:04:52;;;;;;;4.70;1.10;;;15.80;68.90;;;;;;10263663;28;20015;-59
2023/04/12 09:09:54;;;;;;;3.50;1.27;;;15.80;68.80;;;;;;10280510;28;20019;-59
2023/04/12 09:15:13;;;;;;;3.70;1.73;;;15.80;68.80;;;;;;10264548;28;20679;-59
2023/04/12 09:20:16;;;;;;;8.70;2.20;;;15.70;68.70;;;;;;10268657;28;20034;-59
2023/04/12 09:25:17;;;;;;;3.33;1.30;;;15.80;68.80;;;;;;10281519;28;20097;-59
2023/04/12 09:30:19;;;;;;;6.10;1.58;;;15.80;68.80;;;;;;10280536;28;20102;-58
2023/04/12 09:35:34;;;;;;;7.70;1.90;;;15.80;68.80;;;;;;10282371;28;20035;-58
2023/04/12 09:40:36;;;;;;;8.25;1.80;;;15.80;68.80;;;;;;10266114;28;20073;-59
2023/04/12 09:45:40;;;;;;;5.05;1.38;;;15.80;68.80;;;;;;10283073;28;20074;-57
2023/04/12 09:50:41;;;;;;;6.72;1.90;;;15.80;68.80;;;;;;10267512;28;20069;-58
2023/04/12 09:55:42;;;;;;;4.28;1.23;;;15.80;68.80;;;;;;10265653;28;20359;-59
2023/04/12 10:00:44;;;;;;;5.35;1.30;;;15.80;68.80;;;;;;10286524;28;20031;-58
2023/04/12 10:05:44;;;;;;;3.55;1.30;;;15.80;68.80;;;;;;10290869;28;20015;-58
2023/04/12 10:10:45;;;;;;;3.85;1.70;;;15.80;68.80;;;;;;10290290;28;20030;-56
2023/04/12 10:15:49;;;;;;;6.03;1.33;;;15.80;68.80;;;;;;10273532;28;20030;-60
2023/04/12 10:20:50;;;;;;;3.95;1.65;;;15.80;69.10;;;;;;10290690;28;20848;-60
2023/04/12 10:25:52;;;;;;;4.88;1.48;;;15.80;69.10;;;;;;10273368;28;20115;-60
2023/04/12 10:30:56;;;;;;;5.68;1.95;;;15.80;69.20;;;;;;10289002;28;20475;-60
2023/04/12 10:35:59;;;;;;;3.28;1.05;;;15.70;69.30;;;;;;10288967;28;20045;-59
2023/04/12 10:41:14;;;;;;;5.05;1.27;;;15.70;69.10;;;;;;10289221;28;20105;-58
2023/04/12 10:46:37;;;;;;;5.25;2.00;;;15.70;69.30;;;;;;10272926;28;20650;-59
2023/04/12 10:51:38;;;;;;;4.40;1.33;;;15.80;69.50;;;;;;10288027;28;20096;-59
2023/04/12 10:56:44;;;;;;;3.58;1.35;;;15.90;69.30;;;;;;10289487;28;20343;-59
2023/04/12 11:02:10;;;;;;;7.63;1.52;;;15.90;69.00;;;;;;10272391;28;20023;-59
2023/04/12 11:07:11;;;;;;;4.25;1.35;;;15.90;69.80;;;;;;10286366;28;20019;-58
2023/04/12 11:12:14;;;;;;;6.45;1.35;;;16.00;69.20;;;;;;10270821;28;20058;-57
2023/04/12 11:17:14;;;;;;;3.78;1.67;;;16.00;69.80;;;;;;10258119;28;20042;-57
2023/04/12 11:22:18;;;;;;;4.75;1.48;;;16.00;69.50;;;;;;10286347;28;20011;-58
2023/04/12 11:27:22;;;;;;;4.70;1.33;;;16.00;69.30;;;;;;10287790;28;20029;-58
2023/04/12 11:32:26;;;;;;;4.78;1.88;;;15.90;69.20;;;;;;10270965;28;20030;-58
2023/04/12 11:37:29;;;;;;;5.35;1.23;;;16.00;70.10;;;;;;10288227;28;20031;-57
2023/04/12 11:42:30;;;;;;;4.50;1.67;;;16.00;69.80;;;;;;10255202;28;20023;-57
2023/04/12 11:47:31;;;;;;;9.27;1.63;;;16.00;70.50;;;;;;10270450;28;20102;-59
2023/04/12 11:52:32;;;;;;;6.65;1.65;;;16.00;69.70;;;;;;10288353;28;20030;-58
2023/04/12 11:57:34;;;;;;;5.97;1.80;;;15.90;69.70;;;;;;10286964;28;20125;-57
2023/04/12 12:02:36;;;;;;;6.50;1.40;;;15.80;70.50;;;;;;10268708;28;20445;-58
2023/04/12 12:07:37;;;;;;;5.68;1.50;;;15.90;71.60;;;;;;10267904;28;20038;-58
2023/04/12 12:12:37;;;;;;;11.63;3.30;;;16.00;70.90;;;;;;10268764;28;20049;-56
2023/04/12 12:17:38;;;;;;;5.90;2.08;;;16.10;70.60;;;;;;10286005;28;20066;-57
2023/04/12 12:22:45;;;;;;;13.07;1.90;;;16.40;70.40;;;;;;10267521;28;20050;-59
2023/04/12 12:27:50;;;;;;;14.18;2.40;;;16.40;70.40;;;;;;10283806;28;20713;-58
2023/04/12 12:32:53;;;;;;;12.85;2.42;;;16.30;69.40;;;;;;10268539;28;20379;-60
2023/04/12 12:37:57;;;;;;;8.07;2.30;;;16.20;70.30;;;;;;10284234;28;20134;-59
2023/04/12 12:42:58;;;;;;;11.98;1.70;;;16.20;69.40;;;;;;10284181;28;20019;-59
2023/04/12 12:48:01;;;;;;;12.15;2.28;;;16.10;69.50;;;;;;10285340;28;20362;-56
2023/04/12 12:53:04;;;;;;;13.95;2.80;;;16.10;69.50;;;;;;10283300;28;20031;-58
2023/04/12 12:58:05;;;;;;;10.20;2.70;;;16.10;69.30;;;;;;10284799;28;20138;-58
2023/04/12 13:03:06;;;;;;;6.47;1.67;;;16.00;69.20;;;;;;10284973;28;20045;-59
2023/04/12 13:08:06;;;;;;;5.78;2.38;;;16.00;69.10;;;;;;10284509;28;20459;-59
2023/04/12 13:13:07;;;;;;;7.00;1.60;;;16.00;69.20;;;;;;10266291;28;20063;-59
2023/04/12 13:18:08;;;;;;;6.68;2.65;;;15.90;69.00;;;;;;10284696;28;20022;-59
2023/04/12 13:23:09;;;;;;;10.20;2.42;;;15.90;69.00;;;;;;10284044;28;20027;-58
2023/04/12 13:28:11;;;;;;;13.63;2.25;;;16.00;68.90;;;;;;10266143;28;20153;-58
2023/04/12 13:33:11;;;;;;;11.88;2.83;;;15.90;68.80;;;;;;10285913;28;20592;-58
2023/04/12 13:38:12;;;;;;;11.13;1.95;;;15.90;68.90;;;;;;10283419;28;20126;-57
2023/04/12 13:43:13;;;;;;;11.00;2.22;;;15.90;68.70;;;;;;10281941;28;20077;-57
2023/04/12 13:48:13;;;;;;;7.00;1.73;;;15.90;68.80;;;;;;10265462;28;20073;-56
2023/04/12 13:53:14;;;;;;;6.22;1.75;;;15.90;68.50;;;;;;10282377;28;20353;-57
2023/04/12 13:58:15;;;;;;;11.75;1.83;;;15.90;68.50;;;;;;10282631;28;20039;-55
2023/04/12 14:03:16;;;;;;;8.02;1.50;;;15.90;68.60;;;;;;10283069;28;20023;-56
2023/04/12 14:08:16;;;;;;;9.48;1.70;;;15.90;68.60;;;;;;10283239;28;20062;-57
2023/04/12 14:13:17;;;;;;;10.27;2.20;;;15.80;68.70;;;;;;10281687;28;20135;-60
2023/04/12 14:18:20;;;;;;;5.10;1.92;;;15.80;68.80;;;;;;10280855;28;20058;-59
2023/04/12 14:23:24;;;;;;;6.50;1.83;;;15.90;68.70;;;;;;10264306;28;20030;-59
2023/04/12 14:28:29;;;;;;;6.20;2.22;;;15.80;68.60;;;;;;10276686;28;20022;-59
2023/04/12 14:33:30;;;;;;;7.13;2.25;;;15.80;68.80;;;;;;10280502;28;20102;-60
2023/04/12 14:38:30;;;;;;;4.15;1.50;;;15.80;69.40;;;;;;10285641;28;20114;-59
2023/04/12 14:43:31;;;;;;;7.72;1.70;;;15.80;68.70;;;;;;10264275;28;20127;-60
2023/04/12 14:48:32;;;;;;;4.95;1.42;;;15.70;68.70;;;;;;10287370;28;20031;-61
2023/04/12 14:53:33;;;;;;;8.65;2.03;;;15.70;68.70;;;;;;10287984;28;20126;-57
2023/04/12 14:58:34;;;;;;;6.93;1.70;;;15.70;69.10;;;;;;10287138;28;20035;-58
2023/04/12 15:03:34;;;;;;;12.63;3.38;;;15.80;69.50;;;;;;10289207;28;20019;-57
2023/04/12 15:08:41;;;;;;;14.13;4.25;;;15.80;68.90;;;;;;10289309;28;20054;-57
2023/04/12 15:13:43;;;;;;;26.88;9.73;;;15.70;68.70;;;;;;10289879;28;20019;-57
2023/04/12 15:18:44;;;;;;;28.98;9.52;;;15.70;70.20;;;;;;10271501;28;20043;-58
2023/04/12 15:23:46;;;;;;;17.73;6.68;;;15.80;70.30;;;;;;10271417;28;20034;-58
2023/04/12 15:28:46;;;;;;;25.13;7.03;;;15.90;68.50;;;;;;10287430;28;20340;-58
2023/04/12 15:33:49;;;;;;;20.48;5.15;;;16.00;68.10;;;;;;10270416;28;20059;-59
2023/04/12 15:38:50;;;;;;;19.15;4.55;;;16.30;68.40;;;;;;10288148;28;20035;-59
2023/04/12 15:43:51;;;;;;;25.17;4.65;;;16.60;68.40;;;;;;10270012;28;20050;-58
2023/04/12 15:48:51;;;;;;;24.75;5.07;;;16.80;68.90;;;;;;10270776;28;20102;-59
2023/04/12 15:53:53;;;;;;;23.13;5.47;;;16.90;69.10;;;;;;10287704;28;20026;-61
2023/04/12 15:58:59;;;;;;;18.50;4.40;;;16.90;68.90;;;;;;10285464;28;20057;-61
2023/04/12 16:04:01;;;;;;;18.50;3.78;;;16.80;69.30;;;;;;10273002;28;20027;-56
2023/04/12 16:09:03;;;;;;;22.25;6.32;;;16.80;68.80;;;;;;10287393;28;20022;-59
2023/04/12 16:14:04;;;;;;;23.52;4.57;;;16.70;69.40;;;;;;10286694;28;20027;-59
2023/04/12 16:19:05;;;;;;;17.50;3.83;;;16.70;69.60;;;;;;10284066;28;20062;-59
2023/04/12 16:24:06;;;;;;;23.25;6.47;;;16.60;69.60;;;;;;10285053;28;20027;-60
2023/04/12 16:29:07;;;;;;;20.15;4.72;;;16.50;70.10;;;;;;10284013;28;20058;-59
2023/04/12 16:34:08;;;;;;;17.88;5.15;;;16.40;70.80;;;;;;10267836;28;20533;-59
2023/04/12 16:39:10;;;;;;;17.45;5.07;;;16.30;70.80;;;;;;10267730;28;20038;-58
2023/04/12 16:44:17;;;;;;;23.55;4.20;;;16.40;70.60;;;;;;10284742;28;20042;-60
2023/04/12 16:49:17;;;;;;;14.90;4.57;;;16.30;70.70;;;;;;10267683;28;20086;-60
2023/04/12 16:54:18;;;;;;;18.33;4.15;;;16.30;71.10;;;;;;10280548;28;20063;-57
2023/04/12 16:59:19;;;;;;;21.10;5.10;;;16.40;71.10;;;;;;10253944;28;20113;-57
2023/04/12 17:04:20;;;;;;;22.50;4.50;;;16.40;70.90;;;;;;10266858;28;20095;-59
2023/04/12 17:09:21;;;;;;;24.35;4.72;;;16.40;71.60;;;;;;10283734;28;20111;-58
2023/04/12 17:14:21;;;;;;;19.60;4.68;;;16.30;71.30;;;;;;10283690;28;20053;-59
2023/04/12 17:19:22;;;;;;;14.85;4.70;;;16.30;71.30;;;;;;10243658;28;20051;-59
2023/04/12 17:24:24;;;;;;;21.77;4.07;;;16.20;71.40;;;;;;10264160;28;20069;-58
2023/04/12 17:29:26;;;;;;;25.77;5.57;;;16.20;71.40;;;;;;10279931;28;20050;-59
2023/04/12 17:34:27;;;;;;;14.85;4.22;;;16.20;71.50;;;;;;10276661;28;20037;-59
2023/04/12 17:39:27;;;;;;;20.77;4.18;;;16.20;71.30;;;;;;10251842;28;20484;-60
2023/04/12 17:44:28;;;;;;;16.08;4.90;;;16.20;71.20;;;;;;10279845;28;20121;-57
2023/04/12 17:49:29;;;;;;;16.33;3.58;;;16.20;71.40;;;;;;10263126;28;20102;-60
2023/04/12 17:54:30;;;;;;;13.40;3.80;;;16.10;71.40;;;;;;10260740;28;20525;-60
2023/04/12 17:59:31;;;;;;;9.02;2.88;;;16.10;71.40;;;;;;10262563;28;20031;-60
2023/04/12 18:04:32;;;;;;;14.88;3.83;;;16.10;71.40;;;;;;10258992;28;20015;-60
2023/04/12 18:09:33;;;;;;;10.20;2.45;;;16.20;71.10;;;;;;10281254;28;20027;-60
2023/04/12 18:14:34;;;;;;;11.38;4.00;;;16.20;71.10;;;;;;10282611;28;20051;-58
2023/04/12 18:19:35;;;;;;;11.52;3.03;;;16.20;71.00;;;;;;10277644;28;20035;-54
2023/04/12 18:24:35;;;;;;;8.77;2.10;;;16.20;70.90;;;;;;10270214;28;20022;-58
2023/04/12 18:29:36;;;;;;;9.80;2.97;;;16.20;70.80;;;;;;10267850;28;20139;-58
2023/04/12 18:34:37;;;;;;;10.52;2.17;;;16.20;70.90;;;;;;10270368;28;20242;-58
2023/04/12 18:39:37;;;;;;;11.52;2.50;;;16.20;71.00;;;;;;10262254;28;20198;-58
2023/04/12 18:44:40;;;;;;;11.95;2.65;;;16.10;70.80;;;;;;10272441;28;20077;-57
2023/04/12 18:49:41;;;;;;;8.98;1.92;;;16.00;70.90;;;;;;10276890;28;20113;-57
2023/04/12 18:54:41;;;;;;;8.40;2.15;;;16.10;71.70;;;;;;10282567;28;20022;-57
2023/04/12 18:59:46;;;;;;;9.70;2.08;;;16.10;71.40;;;;;;10284643;28;20122;-57
2023/04/12 19:04:47;;;;;;;11.20;2.55;;;16.10;71.50;;;;;;10279301;28;20027;-58
2023/04/12 19:09:47;;;;;;;12.77;3.33;;;16.00;71.60;;;;;;10285150;28;20023;-58
2023/04/12 19:14:48;;;;;;;9.13;2.92;;;16.00;71.70;;;;;;10288637;28;20043;-54
2023/04/12 19:19:49;;;;;;;8.20;3.35;;;15.90;71.60;;;;;;10278980;28;20509;-56
2023/04/12 19:24:50;;;;;;;10.15;2.05;;;15.90;72.20;;;;;;10279655;28;20027;-57
2023/04/12 19:29:51;;;;;;;8.82;2.95;;;15.90;71.90;;;;;;10284760;28;20109;-56
2023/04/12 19:34:52;;;;;;;13.95;2.90;;;15.90;72.00;;;;;;10286432;28;20026;-56
2023/04/12 19:39:53;;;;;;;9.43;2.17;;;15.90;72.00;;;;;;10270459;28;20053;-57
2023/04/12 19:44:54;;;;;;;6.72;1.90;;;15.80;72.00;;;;;;10269025;28;20130;-55
2023/04/12 19:49:55;;;;;;;16.23;3.75;;;15.90;72.10;;;;;;10286015;28;20161;-56
2023/04/12 19:54:56;;;;;;;9.27;2.00;;;15.80;71.80;;;;;;10286998;28;20041;-56
2023/04/12 19:59:56;;;;;;;10.55;2.33;;;15.80;71.90;;;;;;10286419;28;20038;-55
2023/04/12 20:04:57;;;;;;;5.28;1.98;;;15.80;71.90;;;;;;10284799;28;20055;-56
2023/04/12 20:09:59;;;;;;;8.23;1.98;;;15.70;71.70;;;;;;10266768;28;20513;-56
2023/04/12 20:15:03;;;;;;;5.18;1.60;;;15.70;71.60;;;;;;10266121;28;20065;-55
2023/04/12 20:20:06;;;;;;;5.68;1.70;;;15.70;71.50;;;;;;10285097;28;20067;-56
2023/04/12 20:25:13;;;;;;;4.78;1.40;;;15.70;71.50;;;;;;10286529;28;20488;-54
2023/04/12 20:30:16;;;;;;;5.20;2.03;;;15.60;71.40;;;;;;10285903;28;20022;-56
2023/04/12 20:35:17;;;;;;;3.63;1.50;;;15.60;71.40;;;;;;10285894;28;20037;-54
2023/04/12 20:40:21;;;;;;;5.95;1.63;;;15.60;71.30;;;;;;10297632;28;20031;-56
2023/04/12 20:45:22;;;;;;;5.20;1.50;;;15.60;71.20;;;;;;10284879;28;20053;-56
2023/04/12 20:50:24;;;;;;;5.53;1.33;;;15.60;71.20;;;;;;10285163;28;20037;-56
2023/04/12 20:55:31;;;;;;;3.88;1.50;;;15.60;71.10;;;;;;10285380;28;20026;-54
2023/04/12 21:00:32;;;;;;;4.50;1.75;;;15.50;71.10;;;;;;10268489;28;20065;-56
2023/04/12 21:05:33;;;;;;;3.47;1.45;;;15.50;71.00;;;;;;10285114;28;20098;-55
2023/04/12 21:10:34;;;;;;;8.93;1.60;;;15.50;70.90;;;;;;10284878;28;20061;-56
2023/04/12 21:15:35;;;;;;;4.95;2.33;;;15.50;70.80;;;;;;10284475;28;20058;-55
2023/04/12 21:20:35;;;;;;;3.78;1.77;;;15.50;70.80;;;;;;10283994;28;20685;-53
2023/04/12 21:25:36;;;;;;;5.57;1.38;;;15.50;70.80;;;;;;10283467;28;20061;-56
2023/04/12 21:30:43;;;;;;;3.97;1.27;;;15.50;70.80;;;;;;10284481;28;20038;-56
2023/04/12 21:35:44;;;;;;;4.00;1.20;;;15.50;70.70;;;;;;10267327;28;20094;-56
2023/04/12 21:40:45;;;;;;;4.80;1.95;;;15.40;70.60;;;;;;10266248;28;20474;-56
2023/04/12 21:45:45;;;;;;;3.20;1.30;;;15.40;70.60;;;;;;10266330;28;20057;-55
2023/04/12 21:50:47;;;;;;;5.65;1.45;;;15.40;70.50;;;;;;10281549;28;20352;-56
2023/04/12 21:55:49;;;;;;;3.28;1.20;;;15.40;70.60;;;;;;10282829;28;20062;-55
2023/04/12 22:00:51;;;;;;;3.08;1.35;;;15.40;70.50;;;;;;10283207;28;20038;-56
2023/04/12 22:05:52;;;;;;;3.85;1.52;;;15.40;70.40;;;;;;10283434;28;20026;-55
2023/04/12 22:10:53;;;;;;;3.05;1.05;;;15.40;70.40;;;;;;10282915;28;20118;-56
2023/04/12 22:15:53;;;;;;;3.50;1.27;;;15.30;70.30;;;;;;10282862;28;20026;-56
2023/04/12 22:20:55;;;;;;;1.92;0.77;;;15.40;70.30;;;;;;10282592;28;20508;-56
2023/04/12 22:25:57;;;;;;;3.55;1.40;;;15.30;70.20;;;;;;10282623;28;20102;-56
2023/04/12 22:30:59;;;;;;;4.90;1.48;;;15.40;70.30;;;;;;10282605;28;20030;-55
2023/04/12 22:36:01;;;;;;;4.85;1.00;;;15.30;70.10;;;;;;10281524;28;20098;-54
2023/04/12 22:41:01;;;;;;;3.30;1.10;;;15.40;70.20;;;;;;10282182;28;20564;-55
2023/04/12 22:46:06;;;;;;;2.15;1.00;;;15.40;70.20;;;;;;10282189;28;20100;-56
2023/04/12 22:51:07;;;;;;;1.85;0.90;;;15.30;69.90;;;;;;10265776;28;20034;-55
2023/04/12 22:56:08;;;;;;;2.10;1.00;;;15.30;69.90;;;;;;10280657;28;20103;-55
2023/04/12 23:01:09;;;;;;;2.08;1.13;;;15.30;69.90;;;;;;10264451;28;20652;-55
2023/04/12 23:06:11;;;;;;;2.85;1.77;;;15.30;69.80;;;;;;10253142;28;20517;-56
2023/04/12 23:11:12;;;;;;;1.95;0.90;;;15.30;70.10;;;;;;10271801;28;20027;-55
2023/04/12 23:16:14;;;;;;;3.67;1.10;;;15.30;69.90;;;;;;10271869;28;20350;-56
2023/04/12 23:21:15;;;;;;;2.78;0.88;;;15.20;69.70;;;;;;10288908;28;20458;-56
2023/04/12 23:26:17;;;;;;;1.75;0.70;;;15.20;69.70;;;;;;10271082;28;20023;-54
2023/04/12 23:31:17;;;;;;;2.05;0.77;;;15.30;69.80;;;;;;10288663;28;20034;-54
2023/04/12 23:36:20;;;;;;;2.13;0.73;;;15.30;72.90;;;;;;10271081;28;20023;-54
2023/04/12 23:41:21;;;;;;;5.20;0.85;;;15.40;73.80;;;;;;10288120;28;20035;-56
2023/04/12 23:46:22;;;;;;;2.10;0.85;;;15.40;73.20;;;;;;10287953;28;20584;-56
2023/04/12 23:51:22;;;;;;;3.47;0.85;;;15.40;72.80;;;;;;10287954;28;20101;-56
2023/04/12 23:56:23;;;;;;;2.08;1.00;;;15.40;72.50;;;;;;10270004;28;20109;-56
